createdAt,value
2018-10-07T00:00:42.606Z,930.01
2018-10-07T00:01:42.622Z,929.99
2018-10-07T00:02:42.682Z,930.01
2018-10-07T00:03:42.687Z,930.03
2018-10-07T00:04:42.759Z,930.06
2018-10-07T00:05:42.895Z,929.99
2018-10-07T00:06:42.818Z,930.02
2018-10-07T00:07:42.896Z,930.13
2018-10-07T00:08:42.930Z,930.09
2018-10-07T00:09:42.940Z,930.14
2018-10-07T00:10:42.993Z,930.17
2018-10-07T00:11:43.065Z,930.19
2018-10-07T00:12:43.093Z,930.15
2018-10-07T00:13:43.140Z,930.27
2018-10-07T00:14:43.182Z,930.21
2018-10-07T00:15:43.316Z,930.16
2018-10-07T00:16:43.225Z,930.20
2018-10-07T00:17:43.281Z,930.29
2018-10-07T00:18:43.327Z,930.25
2018-10-07T00:19:43.372Z,930.25
2018-10-07T00:20:43.414Z,930.30
2018-10-07T00:21:43.486Z,930.32
2018-10-07T00:22:43.489Z,930.34
2018-10-07T00:23:43.573Z,930.40
2018-10-07T00:24:43.620Z,930.34
2018-10-07T00:25:43.632Z,930.32
2018-10-07T00:26:43.674Z,930.39
2018-10-07T00:27:43.738Z,930.39
2018-10-07T00:28:43.761Z,930.23
2018-10-07T00:29:43.821Z,930.20
2018-10-07T00:30:43.879Z,930.25
2018-10-07T00:31:43.903Z,930.24
2018-10-07T00:32:43.932Z,930.17
2018-10-07T00:33:43.994Z,930.10
2018-10-07T00:34:44.038Z,930.30
2018-10-07T00:35:44.059Z,930.21
2018-10-07T00:36:44.123Z,930.19
2018-10-07T00:37:44.183Z,930.07
2018-10-07T00:38:44.215Z,930.17
2018-10-07T00:39:44.236Z,930.15
2018-10-07T00:40:44.333Z,930.10
2018-10-07T00:41:44.333Z,930.17
2018-10-07T00:42:44.508Z,930.07
2018-10-07T00:43:44.388Z,930.14
2018-10-07T00:44:44.441Z,930.10
2018-10-07T00:45:44.508Z,930.11
2018-10-07T00:46:44.515Z,930.17
2018-10-07T00:47:44.604Z,930.11
2018-10-07T00:48:44.629Z,930.16
2018-10-07T00:49:44.664Z,930.06
2018-10-07T00:50:44.706Z,930.09
2018-10-07T00:51:44.758Z,930.09
2018-10-07T00:52:44.815Z,930.05
2018-10-07T00:53:44.836Z,929.98
2018-10-07T00:54:44.894Z,930.02
2018-10-07T00:55:44.901Z,930.18
2018-10-07T00:56:44.945Z,930.09
2018-10-07T00:57:45.004Z,930.05
2018-10-07T00:58:45.042Z,930.06
2018-10-07T00:59:45.099Z,930.12
2018-10-07T01:00:45.149Z,930.22
2018-10-07T01:01:45.145Z,930.09
2018-10-07T01:02:45.211Z,930.10
2018-10-07T01:03:45.275Z,930.14
2018-10-07T01:04:45.265Z,930.14
2018-10-07T01:05:45.360Z,930.22
2018-10-07T01:06:45.391Z,930.23
2018-10-07T01:07:45.447Z,930.22
2018-10-07T01:08:45.451Z,930.23
2018-10-07T01:09:45.501Z,930.13
2018-10-07T01:10:45.567Z,930.16
2018-10-07T01:11:45.629Z,930.21
2018-10-07T01:12:45.657Z,930.12
2018-10-07T01:13:45.688Z,930.27
2018-10-07T01:14:45.709Z,930.17
2018-10-07T01:15:45.769Z,930.07
2018-10-07T01:16:45.772Z,930.02
2018-10-07T01:17:45.877Z,929.98
2018-10-07T01:18:45.890Z,930.01
2018-10-07T01:19:45.928Z,929.91
2018-10-07T01:20:46.041Z,929.92
2018-10-07T01:21:46.063Z,929.95
2018-10-07T01:22:46.088Z,929.88
2018-10-07T01:23:46.082Z,929.90
2018-10-07T01:24:46.159Z,929.91
2018-10-07T01:25:46.230Z,929.90
2018-10-07T01:26:46.225Z,929.95
2018-10-07T01:27:46.271Z,929.92
2018-10-07T01:28:46.319Z,929.93
2018-10-07T01:29:46.329Z,929.93
2018-10-07T01:30:46.347Z,929.97
2018-10-07T01:31:46.441Z,930.00
2018-10-07T01:32:46.438Z,930.00
2018-10-07T01:33:46.557Z,930.04
2018-10-07T01:34:46.586Z,930.10
2018-10-07T01:35:46.583Z,930.07
2018-10-07T01:36:46.620Z,930.13
2018-10-07T01:37:46.689Z,930.12
2018-10-07T01:38:46.720Z,930.11
2018-10-07T01:39:46.805Z,930.06
2018-10-07T01:40:46.796Z,930.13
2018-10-07T01:41:46.895Z,930.03
2018-10-07T01:42:46.916Z,930.06
2018-10-07T01:43:46.979Z,930.04
2018-10-07T01:44:46.984Z,930.02
2018-10-07T01:45:47.074Z,930.03
2018-10-07T01:46:47.037Z,930.04
2018-10-07T01:47:47.166Z,930.00
2018-10-07T01:48:47.172Z,930.04
2018-10-07T01:49:47.258Z,930.03
2018-10-07T01:50:47.254Z,930.08
2018-10-07T01:51:47.339Z,930.11
2018-10-07T01:52:47.398Z,930.10
2018-10-07T01:53:47.385Z,930.15
2018-10-07T01:54:47.424Z,930.19
2018-10-07T01:55:47.465Z,930.13
2018-10-07T01:56:47.484Z,930.19
2018-10-07T01:57:47.513Z,930.20
2018-10-07T01:58:47.572Z,930.08
2018-10-07T01:59:47.646Z,930.07
2018-10-07T02:00:47.687Z,930.09
2018-10-07T02:01:47.741Z,930.02
2018-10-07T02:02:47.726Z,930.01
2018-10-07T02:03:47.901Z,930.05
2018-10-07T02:04:47.820Z,930.16
2018-10-07T02:05:47.992Z,930.03
2018-10-07T02:06:47.976Z,930.16
2018-10-07T02:07:47.973Z,930.10
2018-10-07T02:08:48.000Z,930.10
2018-10-07T02:09:48.097Z,930.13
2018-10-07T02:10:48.174Z,930.15
2018-10-07T02:11:48.167Z,930.02
2018-10-07T02:12:48.215Z,929.97
2018-10-07T02:13:48.225Z,929.95
2018-10-07T02:14:48.254Z,929.96
2018-10-07T02:15:48.304Z,929.94
2018-10-07T02:16:48.482Z,929.93
2018-10-07T02:17:48.433Z,929.95
2018-10-07T02:18:48.467Z,929.87
2018-10-07T02:19:48.511Z,929.87
2018-10-07T02:20:48.538Z,929.86
2018-10-07T02:21:48.646Z,929.85
2018-10-07T02:22:48.657Z,929.89
2018-10-07T02:23:48.718Z,929.86
2018-10-07T02:24:48.676Z,929.89
2018-10-07T02:25:48.726Z,929.86
2018-10-07T02:26:48.972Z,929.87
2018-10-07T02:27:48.882Z,929.89
2018-10-07T02:28:48.930Z,929.95
2018-10-07T02:29:48.872Z,929.92
2018-10-07T02:30:48.956Z,929.90
2018-10-07T02:31:49.044Z,929.90
2018-10-07T02:32:49.076Z,929.99
2018-10-07T02:33:49.136Z,929.93
2018-10-07T02:34:49.131Z,929.96
2018-10-07T02:35:49.147Z,929.96
2018-10-07T02:36:49.201Z,929.96
2018-10-07T02:37:49.260Z,929.98
2018-10-07T02:38:49.304Z,930.01
2018-10-07T02:39:49.294Z,930.00
2018-10-07T02:40:49.353Z,930.02
2018-10-07T02:41:49.414Z,929.95
2018-10-07T02:42:49.419Z,930.01
2018-10-07T02:43:49.553Z,929.96
2018-10-07T02:44:49.569Z,929.93
2018-10-07T02:45:49.564Z,929.95
2018-10-07T02:46:49.643Z,929.92
2018-10-07T02:47:49.657Z,929.95
2018-10-07T02:48:49.799Z,929.97
2018-10-07T02:49:49.735Z,929.94
2018-10-07T02:50:49.817Z,929.95
2018-10-07T02:51:49.801Z,929.91
2018-10-07T02:52:49.868Z,929.90
2018-10-07T02:53:49.895Z,929.86
2018-10-07T02:54:49.970Z,929.83
2018-10-07T02:55:50.027Z,929.82
2018-10-07T02:56:50.076Z,929.83
2018-10-07T02:57:50.096Z,929.78
2018-10-07T02:58:50.200Z,929.84
2018-10-07T02:59:50.181Z,929.72
2018-10-07T03:00:50.233Z,929.71
2018-10-07T03:01:50.249Z,929.68
2018-10-07T03:02:50.362Z,929.67
2018-10-07T03:03:50.369Z,929.64
2018-10-07T03:04:50.538Z,929.62
2018-10-07T03:05:50.422Z,929.57
2018-10-07T03:06:50.439Z,929.60
2018-10-07T03:07:50.498Z,929.64
2018-10-07T03:08:50.577Z,929.61
2018-10-07T03:09:50.633Z,929.60
2018-10-07T03:10:50.657Z,929.63
2018-10-07T03:11:50.686Z,929.59
2018-10-07T03:12:50.762Z,929.62
2018-10-07T03:13:50.772Z,929.62
2018-10-07T03:14:50.833Z,929.57
2018-10-07T03:15:50.818Z,929.59
2018-10-07T03:16:50.879Z,929.54
2018-10-07T03:17:50.949Z,929.59
2018-10-07T03:18:50.964Z,929.61
2018-10-07T03:19:51.028Z,929.52
2018-10-07T03:20:51.035Z,929.52
2018-10-07T03:21:51.078Z,929.47
2018-10-07T03:22:51.232Z,929.53
2018-10-07T03:23:51.188Z,929.47
2018-10-07T03:24:51.269Z,929.42
2018-10-07T03:25:51.268Z,929.38
2018-10-07T03:26:51.294Z,929.37
2018-10-07T03:27:51.372Z,929.36
2018-10-07T03:28:51.493Z,929.29
2018-10-07T03:29:51.412Z,929.28
2018-10-07T03:30:51.460Z,929.30
2018-10-07T03:31:51.529Z,929.36
2018-10-07T03:32:51.565Z,929.27
2018-10-07T03:33:51.619Z,929.27
2018-10-07T03:34:51.655Z,929.27
2018-10-07T03:35:51.673Z,929.22
2018-10-07T03:36:51.736Z,929.16
2018-10-07T03:37:51.779Z,929.22
2018-10-07T03:38:51.803Z,929.24
2018-10-07T03:39:51.879Z,929.19
2018-10-07T03:40:51.913Z,929.28
2018-10-07T03:41:51.943Z,929.24
2018-10-07T03:42:51.971Z,929.17
2018-10-07T03:43:52.033Z,929.19
2018-10-07T03:44:52.081Z,929.10
2018-10-07T03:45:52.126Z,929.18
2018-10-07T03:46:52.151Z,929.15
2018-10-07T03:47:52.203Z,929.10
2018-10-07T03:48:52.242Z,929.13
2018-10-07T03:49:52.391Z,929.14
2018-10-07T03:50:52.324Z,929.09
2018-10-07T03:51:52.409Z,929.13
2018-10-07T03:52:52.412Z,929.16
2018-10-07T03:53:52.495Z,929.13
2018-10-07T03:54:52.508Z,929.17
2018-10-07T03:55:52.591Z,929.08
2018-10-07T03:56:52.613Z,929.11
2018-10-07T03:57:52.604Z,929.21
2018-10-07T03:58:52.697Z,929.12
2018-10-07T03:59:52.700Z,929.15
2018-10-07T04:00:52.732Z,929.17
2018-10-07T04:01:52.773Z,929.14
2018-10-07T04:02:52.827Z,929.15
2018-10-07T04:03:52.873Z,929.18
2018-10-07T04:04:52.910Z,929.18
2018-10-07T04:05:52.970Z,929.19
2018-10-07T04:06:53.036Z,929.14
2018-10-07T04:07:53.051Z,929.16
2018-10-07T04:08:53.090Z,929.16
2018-10-07T04:09:53.123Z,929.20
2018-10-07T04:10:53.161Z,929.11
2018-10-07T04:11:53.214Z,929.17
2018-10-07T04:12:53.262Z,929.13
2018-10-07T04:13:53.307Z,929.17
2018-10-07T04:14:53.388Z,929.20
2018-10-07T04:15:53.390Z,929.10
2018-10-07T04:16:53.453Z,929.04
2018-10-07T04:17:53.464Z,929.13
2018-10-07T04:18:53.516Z,929.06
2018-10-07T04:19:53.550Z,929.05
2018-10-07T04:20:53.596Z,929.06
2018-10-07T04:21:53.753Z,929.06
2018-10-07T04:22:53.673Z,929.02
2018-10-07T04:23:53.726Z,928.97
2018-10-07T04:24:53.751Z,928.97
2018-10-07T04:25:53.783Z,928.91
2018-10-07T04:26:53.897Z,928.93
2018-10-07T04:27:53.893Z,928.87
2018-10-07T04:28:53.939Z,928.90
2018-10-07T04:29:53.977Z,928.87
2018-10-07T04:30:54.026Z,928.91
2018-10-07T04:31:54.165Z,928.91
2018-10-07T04:32:54.109Z,928.94
2018-10-07T04:33:54.135Z,928.93
2018-10-07T04:34:54.194Z,928.90
2018-10-07T04:35:54.225Z,928.90
2018-10-07T04:36:54.271Z,928.94
2018-10-07T04:37:54.315Z,928.88
2018-10-07T04:38:54.389Z,928.87
2018-10-07T04:39:54.512Z,928.87
2018-10-07T04:40:54.435Z,928.87
2018-10-07T04:41:54.617Z,928.86
2018-10-07T04:42:54.513Z,928.82
2018-10-07T04:43:54.555Z,928.77
2018-10-07T04:44:54.651Z,928.79
2018-10-07T04:45:54.663Z,928.80
2018-10-07T04:46:54.691Z,928.81
2018-10-07T04:47:54.786Z,928.83
2018-10-07T04:48:54.778Z,928.79
2018-10-07T04:49:54.822Z,928.79
2018-10-07T04:50:54.843Z,928.82
2018-10-07T04:51:54.915Z,928.76
2018-10-07T04:52:54.944Z,928.81
2018-10-07T04:53:54.969Z,928.80
2018-10-07T04:54:55.014Z,928.80
2018-10-07T04:55:55.058Z,928.83
2018-10-07T04:56:55.094Z,928.80
2018-10-07T04:57:55.268Z,928.76
2018-10-07T04:58:55.184Z,928.82
2018-10-07T04:59:55.246Z,928.81
2018-10-07T05:00:55.283Z,928.82
2018-10-07T05:01:55.321Z,928.82
2018-10-07T05:02:55.359Z,928.81
2018-10-07T05:03:55.418Z,928.77
2018-10-07T05:04:55.456Z,928.77
2018-10-07T05:05:55.494Z,928.79
2018-10-07T05:06:55.535Z,928.68
2018-10-07T05:07:55.675Z,928.67
2018-10-07T05:08:55.604Z,928.60
2018-10-07T05:09:55.708Z,928.60
2018-10-07T05:10:55.716Z,928.55
2018-10-07T05:11:55.741Z,928.56
2018-10-07T05:12:55.828Z,928.56
2018-10-07T05:13:55.841Z,928.60
2018-10-07T05:14:55.879Z,928.61
2018-10-07T05:15:55.931Z,928.59
2018-10-07T05:16:55.970Z,928.66
2018-10-07T05:17:56.043Z,928.63
2018-10-07T05:18:56.031Z,928.58
2018-10-07T05:19:56.094Z,928.64
2018-10-07T05:20:56.193Z,928.56
2018-10-07T05:21:56.173Z,928.44
2018-10-07T05:22:56.215Z,928.47
2018-10-07T05:23:56.258Z,928.43
2018-10-07T05:24:56.293Z,928.41
2018-10-07T05:25:56.347Z,928.44
2018-10-07T05:26:56.367Z,928.39
2018-10-07T05:27:56.423Z,928.36
2018-10-07T05:28:56.473Z,928.34
2018-10-07T05:29:56.508Z,928.32
2018-10-07T05:30:56.563Z,928.27
2018-10-07T05:31:56.592Z,928.30
2018-10-07T05:32:56.621Z,928.31
2018-10-07T05:33:56.681Z,928.33
2018-10-07T05:34:56.814Z,928.34
2018-10-07T05:35:56.767Z,928.25
2018-10-07T05:36:56.804Z,928.24
2018-10-07T05:37:56.835Z,928.23
2018-10-07T05:38:56.875Z,928.29
2018-10-07T05:39:56.916Z,928.31
2018-10-07T05:40:57.006Z,928.21
2018-10-07T05:41:57.020Z,928.32
2018-10-07T05:42:57.052Z,928.23
2018-10-07T05:43:57.080Z,928.21
2018-10-07T05:44:57.128Z,928.19
2018-10-07T05:45:57.171Z,928.18
2018-10-07T05:46:57.205Z,928.13
2018-10-07T05:47:57.267Z,928.11
2018-10-07T05:48:57.320Z,928.16
2018-10-07T05:49:57.344Z,928.17
2018-10-07T05:50:57.495Z,928.13
2018-10-07T05:51:57.401Z,928.05
2018-10-07T05:52:57.448Z,928.07
2018-10-07T05:53:57.480Z,927.99
2018-10-07T05:54:57.541Z,928.06
2018-10-07T05:55:57.576Z,928.03
2018-10-07T05:56:57.640Z,927.99
2018-10-07T05:57:57.678Z,928.03
2018-10-07T05:58:57.721Z,928.02
2018-10-07T05:59:57.750Z,928.03
2018-10-07T06:00:57.784Z,928.02
2018-10-07T06:01:57.876Z,928.07
2018-10-07T06:02:57.890Z,928.04
2018-10-07T06:03:57.948Z,927.99
2018-10-07T06:04:58.005Z,927.97
2018-10-07T06:05:58.048Z,927.97
2018-10-07T06:06:58.042Z,927.99
2018-10-07T06:07:58.112Z,928.08
2018-10-07T06:08:58.153Z,928.09
2018-10-07T06:09:58.172Z,928.02
2018-10-07T06:10:58.217Z,928.04
2018-10-07T06:11:58.248Z,928.11
2018-10-07T06:12:58.320Z,928.08
2018-10-07T06:13:58.328Z,928.13
2018-10-07T06:14:58.619Z,928.03
2018-10-07T06:15:58.448Z,928.08
2018-10-07T06:16:58.486Z,928.07
2018-10-07T06:17:58.503Z,928.02
2018-10-07T06:18:58.622Z,928.03
2018-10-07T06:19:58.614Z,928.06
2018-10-07T06:20:58.647Z,928.04
2018-10-07T06:21:58.685Z,928.01
2018-10-07T06:22:58.775Z,927.98
2018-10-07T06:23:58.750Z,927.97
2018-10-07T06:24:58.819Z,927.94
2018-10-07T06:25:58.844Z,927.85
2018-10-07T06:26:58.883Z,927.82
2018-10-07T06:27:58.951Z,927.77
2018-10-07T06:28:58.983Z,927.77
2018-10-07T06:29:59.114Z,927.76
2018-10-07T06:30:59.172Z,927.72
2018-10-07T06:31:59.109Z,927.69
2018-10-07T06:32:59.163Z,927.67
2018-10-07T06:33:59.171Z,927.64
2018-10-07T06:34:59.240Z,927.68
2018-10-07T06:35:59.272Z,927.68
2018-10-07T06:36:59.319Z,927.72
2018-10-07T06:37:59.386Z,927.71
2018-10-07T06:38:59.408Z,927.72
2018-10-07T06:39:59.539Z,927.67
2018-10-07T06:40:59.474Z,927.73
2018-10-07T06:41:59.578Z,927.76
2018-10-07T06:42:59.569Z,927.75
2018-10-07T06:43:59.629Z,927.77
2018-10-07T06:44:59.654Z,927.83
2018-10-07T06:45:59.781Z,927.78
2018-10-07T06:46:59.730Z,927.80
2018-10-07T06:47:59.779Z,927.79
2018-10-07T06:48:59.829Z,927.72
2018-10-07T06:49:59.861Z,927.73
2018-10-07T06:50:59.916Z,927.67
2018-10-07T06:51:59.956Z,927.71
2018-10-07T06:53:00.039Z,927.74
2018-10-07T06:54:00.023Z,927.79
2018-10-07T06:55:00.067Z,927.79
2018-10-07T06:56:00.127Z,927.80
2018-10-07T06:57:00.163Z,927.75
2018-10-07T06:58:00.210Z,927.72
2018-10-07T06:59:00.281Z,927.61
2018-10-07T07:00:00.283Z,927.64
2018-10-07T07:01:00.332Z,927.63
2018-10-07T07:02:00.635Z,927.60
2018-10-07T07:03:00.425Z,927.58
2018-10-07T07:04:00.464Z,927.60
2018-10-07T07:05:00.486Z,927.60
2018-10-07T07:06:00.560Z,927.59
2018-10-07T07:07:00.565Z,927.62
2018-10-07T07:08:00.615Z,927.67
2018-10-07T07:09:00.659Z,927.69
2018-10-07T07:10:00.749Z,927.73
2018-10-07T07:11:00.741Z,927.78
2018-10-07T07:12:00.803Z,927.80
2018-10-07T07:13:01.081Z,927.82
2018-10-07T07:14:00.862Z,927.82
2018-10-07T07:15:00.956Z,927.91
2018-10-07T07:16:01.007Z,927.91
2018-10-07T07:17:00.992Z,927.90
2018-10-07T07:18:01.140Z,927.95
2018-10-07T07:19:01.097Z,927.93
2018-10-07T07:20:01.194Z,927.88
2018-10-07T07:21:01.161Z,927.94
2018-10-07T07:22:01.256Z,927.93
2018-10-07T07:23:01.270Z,927.90
2018-10-07T07:24:01.594Z,927.94
2018-10-07T07:25:01.389Z,927.96
2018-10-07T07:26:01.392Z,927.96
2018-10-07T07:27:01.419Z,927.90
2018-10-07T07:28:01.471Z,927.86
2018-10-07T07:29:01.608Z,927.92
2018-10-07T07:30:01.568Z,927.94
2018-10-07T07:31:01.603Z,927.95
2018-10-07T07:32:01.637Z,927.93
2018-10-07T07:33:01.702Z,927.93
2018-10-07T07:34:01.773Z,927.86
2018-10-07T07:35:02.055Z,927.77
2018-10-07T07:36:01.798Z,927.83
2018-10-07T07:37:01.997Z,927.74
2018-10-07T07:38:01.899Z,927.73
2018-10-07T07:39:01.934Z,927.74
2018-10-07T07:40:02.008Z,927.66
2018-10-07T07:41:02.007Z,927.69
2018-10-07T07:42:02.058Z,927.65
2018-10-07T07:43:02.088Z,927.73
2018-10-07T07:44:02.137Z,927.72
2018-10-07T07:45:02.182Z,927.75
2018-10-07T07:46:02.489Z,927.75
2018-10-07T07:47:02.276Z,927.78
2018-10-07T07:48:02.335Z,927.72
2018-10-07T07:49:02.393Z,927.72
2018-10-07T07:50:02.430Z,927.80
2018-10-07T07:51:02.447Z,927.72
2018-10-07T07:52:02.480Z,927.76
2018-10-07T07:53:02.531Z,927.75
2018-10-07T07:54:02.568Z,927.72
2018-10-07T07:55:02.594Z,927.69
2018-10-07T07:56:02.665Z,927.74
2018-10-07T07:57:02.715Z,927.77
2018-10-07T07:58:02.735Z,927.69
2018-10-07T07:59:02.777Z,927.64
2018-10-07T08:00:02.814Z,927.66
2018-10-07T08:01:02.928Z,927.71
2018-10-07T08:02:02.908Z,927.72
2018-10-07T08:03:02.949Z,927.66
2018-10-07T08:04:02.986Z,927.71
2018-10-07T08:05:03.033Z,927.76
2018-10-07T08:06:03.109Z,927.86
2018-10-07T08:07:03.150Z,927.93
2018-10-07T08:08:03.152Z,927.88
2018-10-07T08:09:03.197Z,927.97
2018-10-07T08:10:03.260Z,927.93
2018-10-07T08:11:03.275Z,927.96
2018-10-07T08:12:03.341Z,928.06
2018-10-07T08:13:03.369Z,928.09
2018-10-07T08:14:03.469Z,928.12
2018-10-07T08:15:03.451Z,928.14
2018-10-07T08:16:03.542Z,928.14
2018-10-07T08:17:03.528Z,928.15
2018-10-07T08:18:03.682Z,928.17
2018-10-07T08:19:03.607Z,928.15
2018-10-07T08:20:03.654Z,928.13
2018-10-07T08:21:03.726Z,928.16
2018-10-07T08:22:03.739Z,928.20
2018-10-07T08:23:03.826Z,928.19
2018-10-07T08:24:03.872Z,928.22
2018-10-07T08:25:03.875Z,928.24
2018-10-07T08:26:03.909Z,928.23
2018-10-07T08:27:03.972Z,928.22
2018-10-07T08:28:04.087Z,928.20
2018-10-07T08:29:04.118Z,928.16
2018-10-07T08:30:04.068Z,928.21
2018-10-07T08:31:04.171Z,928.18
2018-10-07T08:32:04.172Z,928.17
2018-10-07T08:33:04.524Z,928.20
2018-10-07T08:34:04.245Z,928.22
2018-10-07T08:35:04.347Z,928.27
2018-10-07T08:36:04.330Z,928.22
2018-10-07T08:37:04.388Z,928.23
2018-10-07T08:38:04.433Z,928.25
2018-10-07T08:39:04.489Z,928.28
2018-10-07T08:40:04.517Z,928.25
2018-10-07T08:41:04.558Z,928.26
2018-10-07T08:42:04.596Z,928.26
2018-10-07T08:43:04.717Z,928.29
2018-10-07T08:44:04.659Z,928.26
2018-10-07T08:45:04.726Z,928.26
2018-10-07T08:46:04.740Z,928.30
2018-10-07T08:47:04.827Z,928.35
2018-10-07T08:48:05.093Z,928.37
2018-10-07T08:49:04.872Z,928.35
2018-10-07T08:50:04.916Z,928.36
2018-10-07T08:51:04.977Z,928.42
2018-10-07T08:52:05.027Z,928.39
2018-10-07T08:53:05.160Z,928.38
2018-10-07T08:54:05.145Z,928.38
2018-10-07T08:55:05.132Z,928.38
2018-10-07T08:56:05.329Z,928.38
2018-10-07T08:57:05.218Z,928.37
2018-10-07T08:58:05.245Z,928.38
2018-10-07T08:59:05.407Z,928.38
2018-10-07T09:00:05.366Z,928.36
2018-10-07T09:01:05.390Z,928.43
2018-10-07T09:02:05.487Z,928.39
2018-10-07T09:03:05.479Z,928.41
2018-10-07T09:04:05.524Z,928.46
2018-10-07T09:05:05.571Z,928.43
2018-10-07T09:06:05.610Z,928.48
2018-10-07T09:07:05.685Z,928.50
2018-10-07T09:08:05.694Z,928.52
2018-10-07T09:09:06.010Z,928.51
2018-10-07T09:10:05.770Z,928.58
2018-10-07T09:11:05.829Z,928.61
2018-10-07T09:12:05.849Z,928.68
2018-10-07T09:13:05.888Z,928.67
2018-10-07T09:14:05.929Z,928.66
2018-10-07T09:15:05.968Z,928.71
2018-10-07T09:16:06.033Z,928.71
2018-10-07T09:17:06.073Z,928.65
2018-10-07T09:18:06.117Z,928.63
2018-10-07T09:19:06.141Z,928.66
2018-10-07T09:20:06.238Z,928.69
2018-10-07T09:21:06.287Z,928.76
2018-10-07T09:22:06.289Z,928.72
2018-10-07T09:23:06.368Z,928.78
2018-10-07T09:24:06.356Z,928.84
2018-10-07T09:25:06.522Z,928.83
2018-10-07T09:26:06.471Z,928.83
2018-10-07T09:27:06.660Z,928.82
2018-10-07T09:28:06.515Z,928.80
2018-10-07T09:29:06.565Z,928.81
2018-10-07T09:30:06.632Z,928.74
2018-10-07T09:31:06.656Z,928.77
2018-10-07T09:32:06.713Z,928.76
2018-10-07T09:33:06.758Z,928.77
2018-10-07T09:34:06.767Z,928.77
2018-10-07T09:35:06.830Z,928.77
2018-10-07T09:36:06.890Z,928.77
2018-10-07T09:37:06.911Z,928.75
2018-10-07T09:38:06.966Z,928.76
2018-10-07T09:39:07.086Z,928.74
2018-10-07T09:40:07.034Z,928.80
2018-10-07T09:41:07.102Z,928.79
2018-10-07T09:42:07.121Z,928.79
2018-10-07T09:43:07.171Z,928.85
2018-10-07T09:44:07.237Z,928.87
2018-10-07T09:45:07.269Z,928.82
2018-10-07T09:46:07.399Z,928.85
2018-10-07T09:47:07.348Z,928.83
2018-10-07T09:48:07.394Z,928.85
2018-10-07T09:49:07.444Z,928.84
2018-10-07T09:50:07.510Z,928.88
2018-10-07T09:51:07.759Z,928.87
2018-10-07T09:52:07.602Z,928.93
2018-10-07T09:53:07.590Z,928.92
2018-10-07T09:54:07.629Z,928.96
2018-10-07T09:55:07.685Z,928.96
2018-10-07T09:56:07.736Z,928.94
2018-10-07T09:57:07.775Z,928.96
2018-10-07T09:58:07.841Z,928.97
2018-10-07T09:59:07.846Z,929.04
2018-10-07T10:00:07.905Z,929.07
2018-10-07T10:01:08.020Z,929.08
2018-10-07T10:02:07.969Z,929.11
2018-10-07T10:03:08.050Z,929.10
2018-10-07T10:04:08.135Z,929.18
2018-10-07T10:05:08.113Z,929.24
2018-10-07T10:06:08.162Z,929.25
2018-10-07T10:07:08.265Z,929.29
2018-10-07T10:08:08.242Z,929.33
2018-10-07T10:09:08.291Z,929.30
2018-10-07T10:10:08.315Z,929.30
2018-10-07T10:11:08.390Z,929.29
2018-10-07T10:12:08.418Z,929.31
2018-10-07T10:13:08.557Z,929.26
2018-10-07T10:14:08.571Z,929.33
2018-10-07T10:15:08.527Z,929.40
2018-10-07T10:16:08.624Z,929.42
2018-10-07T10:17:08.661Z,929.49
2018-10-07T10:18:08.665Z,929.50
2018-10-07T10:19:08.712Z,929.59
2018-10-07T10:20:08.772Z,929.53
2018-10-07T10:21:08.806Z,929.56
2018-10-07T10:22:08.867Z,929.57
2018-10-07T10:23:08.885Z,929.58
2018-10-07T10:24:08.926Z,929.58
2018-10-07T10:25:08.961Z,929.65
2018-10-07T10:26:09.008Z,929.64
2018-10-07T10:27:09.064Z,929.65
2018-10-07T10:28:09.082Z,929.66
2018-10-07T10:29:09.133Z,929.66
2018-10-07T10:30:09.309Z,929.65
2018-10-07T10:31:09.221Z,929.66
2018-10-07T10:32:09.256Z,929.63
2018-10-07T10:33:09.361Z,929.59
2018-10-07T10:34:09.365Z,929.62
2018-10-07T10:35:09.416Z,929.64
2018-10-07T10:36:09.453Z,929.63
2018-10-07T10:37:09.500Z,929.66
2018-10-07T10:38:09.534Z,929.63
2018-10-07T10:39:09.577Z,929.67
2018-10-07T10:40:09.777Z,929.67
2018-10-07T10:41:09.673Z,929.69
2018-10-07T10:42:09.723Z,929.69
2018-10-07T10:43:09.748Z,929.72
2018-10-07T10:44:09.810Z,929.80
2018-10-07T10:45:09.829Z,929.83
2018-10-07T10:46:09.886Z,929.81
2018-10-07T10:47:09.928Z,929.84
2018-10-07T10:48:10.043Z,929.84
2018-10-07T10:49:10.051Z,929.80
2018-10-07T10:50:10.168Z,929.82
2018-10-07T10:51:10.090Z,929.80
2018-10-07T10:52:10.169Z,929.82
2018-10-07T10:53:10.177Z,929.80
2018-10-07T10:54:10.223Z,929.87
2018-10-07T10:55:10.258Z,929.83
2018-10-07T10:56:10.320Z,929.83
2018-10-07T10:57:10.403Z,929.77
2018-10-07T10:58:10.417Z,929.78
2018-10-07T10:59:10.444Z,929.76
2018-10-07T11:00:10.492Z,929.76
2018-10-07T11:01:10.536Z,929.80
2018-10-07T11:02:10.578Z,929.80
2018-10-07T11:03:10.618Z,929.83
2018-10-07T11:04:10.649Z,929.87
2018-10-07T11:05:10.715Z,929.91
2018-10-07T11:06:10.749Z,929.91
2018-10-07T11:07:10.798Z,929.95
2018-10-07T11:08:10.866Z,929.97
2018-10-07T11:09:10.930Z,930.03
2018-10-07T11:10:10.935Z,930.01
2018-10-07T11:11:11.010Z,930.05
2018-10-07T11:12:11.060Z,930.07
2018-10-07T11:13:11.069Z,930.01
2018-10-07T11:14:11.090Z,930.03
2018-10-07T11:15:11.144Z,929.99
2018-10-07T11:16:11.293Z,929.98
2018-10-07T11:17:11.256Z,929.98
2018-10-07T11:18:11.293Z,930.01
2018-10-07T11:19:11.322Z,930.01
2018-10-07T11:20:11.357Z,929.96
2018-10-07T11:21:11.419Z,929.98
2018-10-07T11:22:11.553Z,929.98
2018-10-07T11:23:11.507Z,930.00
2018-10-07T11:24:11.537Z,930.01
2018-10-07T11:25:11.598Z,930.01
2018-10-07T11:26:11.733Z,929.98
2018-10-07T11:27:11.680Z,930.01
2018-10-07T11:28:11.742Z,930.04
2018-10-07T11:29:11.767Z,930.02
2018-10-07T11:30:11.853Z,930.01
2018-10-07T11:31:11.859Z,930.08
2018-10-07T11:32:11.890Z,930.05
2018-10-07T11:33:12.050Z,930.07
2018-10-07T11:34:12.005Z,930.10
2018-10-07T11:35:12.016Z,930.08
2018-10-07T11:36:12.122Z,930.11
2018-10-07T11:37:12.112Z,930.13
2018-10-07T11:38:12.432Z,930.06
2018-10-07T11:39:12.227Z,930.12
2018-10-07T11:40:12.267Z,930.09
2018-10-07T11:41:12.358Z,930.11
2018-10-07T11:42:12.346Z,930.08
2018-10-07T11:43:12.424Z,930.14
2018-10-07T11:44:12.533Z,930.18
2018-10-07T11:45:12.479Z,930.22
2018-10-07T11:46:12.510Z,930.23
2018-10-07T11:47:12.561Z,930.28
2018-10-07T11:48:12.601Z,930.31
2018-10-07T11:49:12.665Z,930.33
2018-10-07T11:50:12.694Z,930.29
2018-10-07T11:51:12.764Z,930.35
2018-10-07T11:52:12.834Z,930.33
2018-10-07T11:53:12.828Z,930.34
2018-10-07T11:54:12.878Z,930.32
2018-10-07T11:55:12.924Z,930.34
2018-10-07T11:56:12.980Z,930.34
2018-10-07T11:57:12.993Z,930.28
2018-10-07T11:58:13.036Z,930.24
2018-10-07T11:59:13.072Z,930.29
2018-10-07T12:00:13.137Z,930.32
2018-10-07T12:01:13.178Z,930.35
2018-10-07T12:02:13.354Z,930.37
2018-10-07T12:03:13.269Z,930.39
2018-10-07T12:04:13.318Z,930.37
2018-10-07T12:05:13.380Z,930.41
2018-10-07T12:06:13.429Z,930.40
2018-10-07T12:07:13.459Z,930.51
2018-10-07T12:08:13.496Z,930.50
2018-10-07T12:09:13.562Z,930.48
2018-10-07T12:10:13.743Z,930.51
2018-10-07T12:11:13.606Z,930.50
2018-10-07T12:12:13.659Z,930.50
2018-10-07T12:13:13.693Z,930.51
2018-10-07T12:14:13.747Z,930.47
2018-10-07T12:15:13.796Z,930.45
2018-10-07T12:16:13.840Z,930.47
2018-10-07T12:17:13.887Z,930.40
2018-10-07T12:18:13.930Z,930.41
2018-10-07T12:19:13.958Z,930.43
2018-10-07T12:20:14.014Z,930.42
2018-10-07T12:21:14.164Z,930.41
2018-10-07T12:22:14.137Z,930.50
2018-10-07T12:23:14.146Z,930.43
2018-10-07T12:24:14.186Z,930.46
2018-10-07T12:25:14.230Z,930.42
2018-10-07T12:26:14.255Z,930.36
2018-10-07T12:27:14.328Z,930.27
2018-10-07T12:28:14.367Z,930.14
2018-10-07T12:29:14.416Z,930.14